Time;durP1;ratioP1;P1;durP2;ratioP2;P2;SDS_P1;SDS_P2;PMS_P1;PMS_P2;Temp;Humidity;BMP_temperature;BMP_pressure;BME280_temperature;BME280_humidity;BME280_pressure;Samples;Min_cycle;Max_cycle;Signal;HPM_P1;HPM_P2
2023/07/25 00:00:09;;;;;;;9.23;4.20;;;12.70;99.90;;;;;;5043358;28;20063;-51
2023/07/25 00:02:34;;;;;;;13.52;4.35;;;12.60;99.90;;;;;;5043093;28;20049;-47
2023/07/25 00:05:00;;;;;;;15.25;4.35;;;12.60;99.90;;;;;;5041902;28;20049;-51
2023/07/25 00:07:25;;;;;;;10.63;4.03;;;12.80;99.90;;;;;;5043327;28;20128;-50
2023/07/25 00:09:52;;;;;;;12.75;4.45;;;12.60;99.90;;;;;;5043328;28;20136;-50
2023/07/25 00:12:17;;;;;;;12.95;4.97;;;12.60;99.90;;;;;;5042902;28;20482;-47
2023/07/25 00:14:43;;;;;;;12.32;4.78;;;12.60;99.90;;;;;;5048826;28;20049;-49
2023/07/25 00:17:09;;;;;;;15.45;4.82;;;12.60;99.90;;;;;;5049814;28;20041;-50
2023/07/25 00:19:34;;;;;;;12.50;4.32;;;12.60;99.90;;;;;;5042202;28;20707;-48
2023/07/25 00:22:01;;;;;;;12.82;4.90;;;12.50;99.90;;;;;;5041671;28;20081;-51
2023/07/25 00:24:27;;;;;;;11.18;5.00;;;12.50;99.90;;;;;;5042720;28;20601;-50
2023/07/25 00:26:52;;;;;;;11.02;4.45;;;12.50;99.90;;;;;;5043163;28;20138;-48
2023/07/25 00:29:18;;;;;;;11.77;4.80;;;12.50;99.90;;;;;;5042253;28;20044;-48
2023/07/25 00:31:43;;;;;;;12.15;4.30;;;12.40;99.90;;;;;;5042493;28;20713;-50
2023/07/25 00:34:09;;;;;;;15.13;4.68;;;12.40;99.90;;;;;;5041997;28;20079;-49
2023/07/25 00:36:34;;;;;;;14.07;4.90;;;12.40;99.90;;;;;;5043255;28;20041;-51
2023/07/25 00:39:00;;;;;;;10.32;4.97;;;12.30;99.90;;;;;;5042097;28;20459;-51
2023/07/25 00:41:26;;;;;;;21.23;5.07;;;12.30;99.90;;;;;;5043098;28;20127;-49
2023/07/25 00:43:51;;;;;;;13.13;4.63;;;12.30;99.90;;;;;;5043123;28;20594;-50
2023/07/25 00:46:17;;;;;;;11.48;4.88;;;12.30;99.90;;;;;;5042772;28;20037;-47
2023/07/25 00:48:44;;;;;;;12.85;4.97;;;12.30;99.90;;;;;;5053154;28;20032;-51
2023/07/25 00:51:10;;;;;;;12.30;5.13;;;12.30;99.90;;;;;;5044145;28;20430;-49
2023/07/25 00:53:36;;;;;;;10.63;4.80;;;12.30;99.90;;;;;;5042680;28;20033;-50
2023/07/25 00:56:02;;;;;;;10.70;4.88;;;12.30;99.90;;;;;;5041912;28;20052;-51
2023/07/25 00:58:30;;;;;;;11.35;4.70;;;12.30;99.90;;;;;;5043206;28;20411;-49
2023/07/25 01:01:06;;;;;;;11.27;4.47;;;12.20;99.90;;;;;;5042675;28;20071;-47
2023/07/25 01:03:36;;;;;;;13.68;4.85;;;12.20;99.90;;;;;;5041094;28;20052;-50
2023/07/25 01:06:03;;;;;;;12.90;5.05;;;12.20;99.90;;;;;;5042613;28;20215;-49
2023/07/25 01:08:29;;;;;;;14.90;5.43;;;12.30;99.90;;;;;;5043125;28;20471;-49
2023/07/25 01:10:55;;;;;;;17.52;5.03;;;12.20;99.90;;;;;;5041931;28;20116;-49
2023/07/25 01:13:21;;;;;;;12.75;4.60;;;12.20;99.90;;;;;;5042944;28;20412;-49
2023/07/25 01:15:51;;;;;;;19.25;4.55;;;12.20;99.90;;;;;;5054426;28;20087;-47
2023/07/25 01:18:18;;;;;;;10.25;4.20;;;12.20;99.90;;;;;;5039913;28;20055;-49
2023/07/25 01:20:46;;;;;;;14.35;4.75;;;12.20;99.90;;;;;;5041247;28;20053;-50
2023/07/25 01:23:13;;;;;;;14.50;4.47;;;12.10;99.90;;;;;;5042449;28;20400;-48
2023/07/25 01:25:39;;;;;;;9.75;4.30;;;12.10;99.90;;;;;;5042544;28;20048;-51
2023/07/25 01:28:05;;;;;;;9.48;4.18;;;12.10;99.90;;;;;;5041942;28;20037;-50
2023/07/25 01:30:31;;;;;;;6.50;4.05;;;12.20;99.90;;;;;;5042495;28;20045;-51
2023/07/25 01:32:57;;;;;;;12.05;4.78;;;12.20;99.90;;;;;;5040171;28;20434;-50
2023/07/25 01:35:22;;;;;;;11.43;4.18;;;12.20;99.90;;;;;;5041579;28;20037;-51
2023/07/25 01:37:48;;;;;;;8.77;4.07;;;12.20;99.90;;;;;;5042909;28;20122;-50
2023/07/25 01:40:14;;;;;;;10.90;4.68;;;12.20;99.90;;;;;;5041944;28;20095;-50
2023/07/25 01:42:39;;;;;;;9.65;4.22;;;12.10;99.90;;;;;;5045362;28;20451;-50
2023/07/25 01:45:05;;;;;;;13.05;4.45;;;12.00;99.90;;;;;;5045158;28;20040;-51
2023/07/25 01:47:31;;;;;;;9.65;4.22;;;12.00;99.90;;;;;;5045181;28;20060;-49
2023/07/25 01:49:57;;;;;;;9.85;3.78;;;12.00;99.90;;;;;;5044120;28;20037;-50
2023/07/25 01:52:23;;;;;;;9.20;4.05;;;12.10;99.90;;;;;;5044504;28;20107;-49
2023/07/25 01:54:49;;;;;;;12.50;4.20;;;12.00;99.90;;;;;;5045364;28;20033;-51
2023/07/25 01:57:15;;;;;;;10.35;3.92;;;12.10;99.90;;;;;;5045909;28;20045;-49
2023/07/25 01:59:41;;;;;;;7.78;3.95;;;12.10;99.90;;;;;;5045296;28;20045;-49
2023/07/25 02:02:06;;;;;;;11.18;4.32;;;12.30;99.90;;;;;;5044638;28;20076;-51
2023/07/25 02:04:32;;;;;;;11.23;4.20;;;12.00;99.90;;;;;;5044373;28;20049;-49
2023/07/25 02:06:58;;;;;;;12.50;4.70;;;12.00;99.90;;;;;;5045614;28;20045;-51
2023/07/25 02:09:23;;;;;;;10.38;4.20;;;12.00;99.90;;;;;;5045210;28;20049;-50
2023/07/25 02:11:49;;;;;;;13.10;4.45;;;11.90;99.90;;;;;;5044418;28;20068;-49
2023/07/25 02:14:15;;;;;;;10.75;4.10;;;11.90;99.90;;;;;;5048283;28;20431;-50
2023/07/25 02:16:40;;;;;;;11.82;4.13;;;11.90;99.90;;;;;;5052953;28;20128;-48
2023/07/25 02:19:06;;;;;;;14.45;4.90;;;11.90;99.90;;;;;;5043585;28;20045;-51
2023/07/25 02:21:33;;;;;;;13.00;4.60;;;12.70;99.90;;;;;;5045745;28;20659;-51
2023/07/25 02:23:59;;;;;;;11.25;4.22;;;11.90;99.90;;;;;;5045589;28;20052;-51
2023/07/25 02:26:25;;;;;;;9.43;4.28;;;11.90;99.90;;;;;;5044257;28;20112;-52
2023/07/25 02:28:51;;;;;;;11.70;4.05;;;11.80;99.90;;;;;;5045389;28;20132;-48
2023/07/25 02:31:16;;;;;;;11.93;4.70;;;11.80;99.90;;;;;;5045281;28;20124;-52
2023/07/25 02:33:42;;;;;;;11.32;4.68;;;11.80;99.90;;;;;;5044694;28;20128;-52
2023/07/25 02:36:07;;;;;;;13.02;4.32;;;11.80;99.90;;;;;;5044192;28;20049;-52
2023/07/25 02:38:33;;;;;;;12.80;4.35;;;11.80;99.90;;;;;;5045210;28;20069;-52
2023/07/25 02:40:59;;;;;;;10.35;4.30;;;11.90;99.90;;;;;;5044718;28;20041;-54
2023/07/25 02:43:24;;;;;;;11.63;4.75;;;11.90;99.90;;;;;;5045163;28;20159;-51
2023/07/25 02:45:51;;;;;;;11.82;4.78;;;12.00;99.90;;;;;;5045480;28;20120;-52
2023/07/25 02:48:18;;;;;;;10.75;5.03;;;12.10;99.90;;;;;;5042624;28;20041;-53
2023/07/25 02:50:43;;;;;;;13.25;4.38;;;12.10;99.90;;;;;;5044915;28;20399;-53
2023/07/25 02:53:09;;;;;;;9.95;4.40;;;12.20;99.90;;;;;;5043423;28;20033;-51
2023/07/25 02:55:35;;;;;;;10.43;4.88;;;12.30;99.90;;;;;;5044286;28;20151;-54
2023/07/25 02:58:01;;;;;;;12.02;4.93;;;12.30;99.90;;;;;;5043903;28;20057;-53
2023/07/25 03:00:27;;;;;;;13.63;5.00;;;12.30;99.90;;;;;;5043938;28;20387;-49
2023/07/25 03:02:52;;;;;;;15.48;5.07;;;12.40;99.90;;;;;;5042658;28;20057;-54
2023/07/25 03:05:18;;;;;;;16.35;4.63;;;12.30;99.90;;;;;;5043367;28;20144;-54
2023/07/25 03:07:44;;;;;;;11.85;4.75;;;12.40;99.90;;;;;;5026332;28;20044;-49
2023/07/25 03:10:09;;;;;;;13.05;5.07;;;12.40;99.90;;;;;;5044436;28;20063;-54
2023/07/25 03:12:35;;;;;;;16.08;5.03;;;12.40;99.90;;;;;;5044608;28;20040;-54
2023/07/25 03:15:02;;;;;;;16.88;5.40;;;12.40;99.90;;;;;;5051089;28;20782;-50
2023/07/25 03:17:30;;;;;;;15.05;5.13;;;12.40;99.90;;;;;;5048236;28;20052;-53
2023/07/25 03:19:56;;;;;;;20.77;5.93;;;12.40;99.90;;;;;;5044415;28;20037;-53
2023/07/25 03:22:21;;;;;;;11.73;5.38;;;12.40;99.90;;;;;;5043133;28;20123;-53
2023/07/25 03:24:48;;;;;;;13.38;5.30;;;12.40;99.90;;;;;;5043646;28;20059;-51
2023/07/25 03:27:17;;;;;;;18.60;5.72;;;12.50;99.90;;;;;;5042694;28;20044;-52
2023/07/25 03:29:44;;;;;;;12.38;5.18;;;12.50;99.90;;;;;;5043274;28;20048;-52
2023/07/25 03:32:09;;;;;;;11.70;4.97;;;12.50;99.90;;;;;;5043369;28;20045;-52
2023/07/25 03:34:35;;;;;;;14.85;5.45;;;12.50;99.90;;;;;;5041299;28;20534;-51
2023/07/25 03:37:01;;;;;;;19.23;5.40;;;12.60;99.90;;;;;;5043095;28;20048;-53
2023/07/25 03:39:27;;;;;;;13.43;5.20;;;12.50;99.90;;;;;;5042900;28;20098;-52
2023/07/25 03:41:53;;;;;;;15.77;5.30;;;12.50;99.90;;;;;;5042223;28;20048;-49
2023/07/25 03:44:19;;;;;;;14.68;5.45;;;12.50;99.90;;;;;;5041979;28;20041;-51
2023/07/25 03:46:45;;;;;;;12.70;5.05;;;12.50;99.90;;;;;;5043888;28;20067;-53
2023/07/25 03:49:12;;;;;;;10.68;5.32;;;12.50;99.90;;;;;;5042812;28;20650;-48
2023/07/25 03:51:38;;;;;;;14.68;5.32;;;12.50;99.90;;;;;;5042613;28;20101;-53
2023/07/25 03:54:07;;;;;;;16.73;5.38;;;12.50;99.90;;;;;;5042961;28;20491;-53
2023/07/25 03:56:33;;;;;;;11.07;5.80;;;12.50;99.90;;;;;;5043086;28;20052;-54
2023/07/25 03:58:59;;;;;;;11.93;5.10;;;12.50;99.90;;;;;;5042965;28;20033;-52
2023/07/25 04:01:25;;;;;;;14.93;5.13;;;12.60;99.90;;;;;;5043169;28;20077;-48
2023/07/25 04:03:51;;;;;;;13.38;5.68;;;12.70;99.90;;;;;;5040820;28;20049;-52
2023/07/25 04:06:20;;;;;;;10.75;4.93;;;12.70;99.90;;;;;;5042408;28;20049;-54
2023/07/25 04:08:46;;;;;;;10.95;4.75;;;12.80;99.90;;;;;;5042599;28;20174;-52
2023/07/25 04:11:13;;;;;;;12.35;4.55;;;12.80;99.90;;;;;;5043417;28;20127;-52
2023/07/25 04:13:39;;;;;;;12.77;4.70;;;12.80;99.90;;;;;;5043698;28;20055;-54
2023/07/25 04:16:05;;;;;;;12.57;4.32;;;12.90;99.90;;;;;;5053288;28;20592;-53
2023/07/25 04:18:30;;;;;;;10.57;3.95;;;13.00;99.90;;;;;;5042490;28;20106;-49
2023/07/25 04:20:56;;;;;;;12.75;4.40;;;13.00;99.90;;;;;;5043665;28;20450;-53
2023/07/25 04:23:22;;;;;;;14.75;4.65;;;13.10;99.90;;;;;;5042827;28;20044;-52
2023/07/25 04:25:49;;;;;;;11.32;4.18;;;13.10;99.90;;;;;;5041983;28;20048;-50
2023/07/25 04:28:15;;;;;;;12.35;4.30;;;13.10;99.90;;;;;;5041847;28;20041;-49
2023/07/25 04:30:41;;;;;;;9.30;4.18;;;13.10;99.90;;;;;;5042900;28;20614;-52
2023/07/25 04:33:06;;;;;;;10.00;4.40;;;13.20;99.90;;;;;;5041289;28;20131;-49
2023/07/25 04:35:32;;;;;;;11.13;3.85;;;13.20;99.90;;;;;;5042766;28;20049;-49
2023/07/25 04:37:57;;;;;;;10.65;3.97;;;13.20;99.90;;;;;;5043415;28;20044;-53
2023/07/25 04:40:24;;;;;;;9.20;3.92;;;13.40;99.90;;;;;;5042591;28;20033;-53
2023/07/25 04:42:50;;;;;;;10.88;4.22;;;13.30;99.90;;;;;;5041884;28;20404;-51
2023/07/25 04:45:15;;;;;;;8.35;3.38;;;13.40;99.90;;;;;;5042935;28;20048;-52
2023/07/25 04:47:41;;;;;;;10.98;3.70;;;13.40;99.90;;;;;;5041671;28;20041;-53
2023/07/25 04:50:07;;;;;;;10.85;4.05;;;13.40;99.90;;;;;;5049163;28;20079;-49
2023/07/25 04:52:33;;;;;;;13.23;4.10;;;13.50;99.90;;;;;;5054018;28;20086;-52
2023/07/25 04:54:58;;;;;;;10.52;3.72;;;13.50;99.90;;;;;;5062779;28;20049;-51
2023/07/25 04:57:25;;;;;;;10.63;3.92;;;13.50;99.90;;;;;;5062358;28;20093;-48
2023/07/25 04:59:50;;;;;;;13.23;4.13;;;13.50;99.90;;;;;;5060238;28;20120;-52
2023/07/25 05:02:17;;;;;;;14.52;3.92;;;13.70;99.90;;;;;;5044779;28;20140;-53
2023/07/25 05:04:42;;;;;;;11.10;3.85;;;13.50;99.90;;;;;;5042555;28;20041;-48
2023/07/25 05:07:08;;;;;;;12.98;4.15;;;13.50;99.90;;;;;;5042321;28;20048;-49
2023/07/25 05:09:34;;;;;;;15.95;4.25;;;13.60;99.90;;;;;;5042354;28;20395;-52
2023/07/25 05:12:00;;;;;;;9.85;3.85;;;13.70;99.90;;;;;;5043249;28;20045;-50
2023/07/25 05:14:25;;;;;;;10.20;3.42;;;13.70;99.90;;;;;;5060324;28;20087;-47
2023/07/25 05:16:51;;;;;;;12.55;3.95;;;13.60;99.90;;;;;;5052069;28;20047;-53
2023/07/25 05:19:17;;;;;;;11.15;3.90;;;13.60;99.90;;;;;;5045387;28;20037;-48
2023/07/25 05:21:42;;;;;;;10.35;3.50;;;13.70;99.90;;;;;;5046606;28;20120;-48
2023/07/25 05:24:08;;;;;;;12.18;3.60;;;13.70;99.90;;;;;;5046503;28;20037;-51
2023/07/25 05:26:33;;;;;;;10.48;4.05;;;13.80;99.90;;;;;;5045364;28;20546;-51
2023/07/25 05:28:59;;;;;;;11.43;3.13;;;13.80;99.90;;;;;;5046827;28;20048;-50
2023/07/25 05:31:25;;;;;;;8.15;3.40;;;13.90;99.90;;;;;;5046367;28;20064;-51
2023/07/25 05:33:50;;;;;;;12.65;4.25;;;13.90;99.90;;;;;;5043174;28;20357;-50
2023/07/25 05:36:16;;;;;;;7.90;3.80;;;13.90;99.90;;;;;;5046587;28;20049;-50
2023/07/25 05:38:41;;;;;;;11.77;4.20;;;14.10;99.90;;;;;;5046106;28;20044;-51
2023/07/25 05:41:07;;;;;;;10.25;3.88;;;14.20;99.90;;;;;;5047219;28;20135;-53
2023/07/25 05:43:32;;;;;;;11.10;3.80;;;14.40;99.90;;;;;;5065485;28;20621;-49
2023/07/25 05:45:58;;;;;;;11.52;3.97;;;14.70;99.90;;;;;;5081724;28;20458;-52
2023/07/25 05:48:24;;;;;;;7.70;3.60;;;14.80;99.90;;;;;;5065224;28;20040;-52
2023/07/25 05:50:53;;;;;;;11.48;3.80;;;14.90;99.90;;;;;;5065244;28;20366;-53
2023/07/25 05:53:19;;;;;;;10.43;4.13;;;15.00;99.90;;;;;;5065830;28;20131;-49
2023/07/25 05:55:46;;;;;;;7.70;3.35;;;15.30;99.90;;;;;;5065447;28;20380;-52
2023/07/25 05:58:14;;;;;;;10.40;3.50;;;15.20;99.90;;;;;;5064452;28;20123;-51
2023/07/25 06:00:40;;;;;;;10.93;4.03;;;15.10;99.90;;;;;;5064139;28;20044;-50
2023/07/25 06:03:05;;;;;;;12.32;3.75;;;15.00;99.90;;;;;;5063627;28;20047;-52
2023/07/25 06:05:33;;;;;;;10.05;3.30;;;14.60;99.90;;;;;;5065669;28;20052;-52
2023/07/25 06:07:59;;;;;;;9.75;3.83;;;14.60;99.90;;;;;;5064622;28;20044;-53
2023/07/25 06:10:24;;;;;;;14.57;2.97;;;15.10;99.90;;;;;;5064993;28;20468;-49
2023/07/25 06:12:50;;;;;;;9.75;2.78;;;15.80;99.90;;;;;;5065200;28;20094;-53
2023/07/25 06:15:15;;;;;;;9.73;2.80;;;16.50;99.90;;;;;;5059270;28;20135;-52
2023/07/25 06:17:41;;;;;;;9.00;3.13;;;17.20;99.90;;;;;;5046555;28;20041;-47
2023/07/25 06:20:08;;;;;;;9.25;2.22;;;17.70;99.90;;;;;;5045319;28;20055;-50
2023/07/25 06:22:34;;;;;;;12.57;2.40;;;18.00;99.90;;;;;;5045132;28;20056;-49
2023/07/25 06:25:00;;;;;;;7.82;2.17;;;18.20;99.90;;;;;;5043346;28;20120;-49
2023/07/25 06:27:26;;;;;;;7.47;2.25;;;18.50;99.90;;;;;;5047951;28;20068;-50
2023/07/25 06:29:52;;;;;;;8.23;2.10;;;18.60;99.90;;;;;;5057809;28;20036;-53
2023/07/25 06:32:17;;;;;;;7.22;2.10;;;18.50;99.90;;;;;;5049056;28;20052;-51
2023/07/25 06:34:43;;;;;;;11.18;2.20;;;18.50;99.90;;;;;;5043822;28;20041;-51
2023/07/25 06:37:09;;;;;;;11.32;2.40;;;18.70;99.90;;;;;;5043963;28;20119;-52
2023/07/25 06:39:34;;;;;;;10.48;2.40;;;18.90;99.90;;;;;;5043314;28;20535;-53
2023/07/25 06:42:00;;;;;;;6.57;2.05;;;19.10;99.90;;;;;;5043799;28;20060;-53
2023/07/25 06:44:26;;;;;;;7.95;1.92;;;19.30;99.90;;;;;;5044569;28;20041;-54
2023/07/25 06:46:51;;;;;;;9.38;1.90;;;19.50;99.90;;;;;;5059796;28;20403;-54
2023/07/25 06:49:17;;;;;;;8.32;1.92;;;19.60;99.90;;;;;;5058899;28;20069;-50
2023/07/25 06:51:42;;;;;;;7.35;1.60;;;19.70;99.90;;;;;;5042820;28;20049;-52
2023/07/25 06:54:08;;;;;;;12.85;2.20;;;19.70;99.90;;;;;;5042485;28;20586;-49
2023/07/25 06:56:33;;;;;;;6.65;1.60;;;19.60;99.90;;;;;;5044595;28;20037;-48
2023/07/25 06:58:59;;;;;;;7.75;1.75;;;19.50;99.90;;;;;;5043072;28;20095;-56
2023/07/25 07:01:27;;;;;;;10.38;2.05;;;19.30;99.90;;;;;;5044851;28;20048;-54
2023/07/25 07:03:54;;;;;;;9.05;1.65;;;19.20;99.90;;;;;;5043149;28;20049;-54
2023/07/25 07:06:20;;;;;;;6.32;1.67;;;19.20;99.90;;;;;;5047267;28;20102;-52
2023/07/25 07:08:46;;;;;;;9.32;1.63;;;19.30;99.90;;;;;;5050927;28;20049;-51
2023/07/25 07:11:12;;;;;;;9.13;1.67;;;19.50;99.90;;;;;;5048982;28;20032;-56
2023/07/25 07:13:37;;;;;;;8.35;1.45;;;19.70;99.90;;;;;;5045262;28;20262;-52
2023/07/25 07:16:03;;;;;;;7.30;1.45;;;19.90;99.90;;;;;;5054395;28;20045;-55
2023/07/25 07:18:29;;;;;;;9.63;1.67;;;20.10;99.90;;;;;;5042886;28;20060;-54
2023/07/25 07:20:54;;;;;;;7.50;1.52;;;20.00;99.90;;;;;;5047627;28;20048;-46
2023/07/25 07:23:20;;;;;;;5.70;1.40;;;20.00;99.90;;;;;;5062933;28;20090;-54
2023/07/25 07:25:46;;;;;;;8.32;1.40;;;20.10;99.90;;;;;;5063439;28;20051;-55
2023/07/25 07:28:12;;;;;;;7.00;1.75;;;20.30;99.90;;;;;;5063764;28;20109;-58
2023/07/25 07:30:38;;;;;;;5.18;1.40;;;20.30;99.90;;;;;;5064379;28;20052;-51
2023/07/25 07:33:03;;;;;;;7.65;1.80;;;20.00;99.90;;;;;;5062402;28;20051;-60
2023/07/25 07:35:29;;;;;;;8.63;1.40;;;19.60;99.90;;;;;;5063559;28;20446;-56
2023/07/25 07:37:54;;;;;;;11.20;1.92;;;19.50;99.90;;;;;;5064421;28;20040;-57
2023/07/25 07:40:20;;;;;;;10.35;1.52;;;19.30;99.90;;;;;;5063171;28;20048;-60
2023/07/25 07:42:46;;;;;;;7.95;1.63;;;19.30;99.90;;;;;;5062733;28;20037;-58
2023/07/25 07:45:11;;;;;;;6.90;1.88;;;19.40;99.90;;;;;;5063951;28;20120;-56
2023/07/25 07:47:37;;;;;;;9.07;1.25;;;19.70;99.90;;;;;;5063197;28;20048;-59
2023/07/25 07:50:03;;;;;;;6.63;1.52;;;19.90;99.90;;;;;;5062695;28;20040;-56
2023/07/25 07:52:28;;;;;;;8.73;1.40;;;19.80;99.90;;;;;;5063257;28;20586;-57
2023/07/25 07:54:55;;;;;;;4.35;1.25;;;19.70;99.90;;;;;;5063262;28;20063;-58
2023/07/25 07:57:20;;;;;;;6.55;1.20;;;19.80;99.90;;;;;;5063403;28;20641;-57
2023/07/25 07:59:46;;;;;;;8.07;1.48;;;19.90;99.90;;;;;;5076719;28;20041;-53
2023/07/25 08:02:11;;;;;;;7.13;1.40;;;19.60;99.90;;;;;;5060731;28;20052;-52
2023/07/25 08:04:37;;;;;;;7.45;1.50;;;19.10;99.90;;;;;;5063011;28;20045;-54
2023/07/25 08:07:03;;;;;;;8.82;1.48;;;18.50;99.90;;;;;;5062375;28;20052;-53
2023/07/25 08:09:29;;;;;;;3.88;0.90;;;18.50;99.90;;;;;;5062442;28;20037;-57
2023/07/25 08:11:54;;;;;;;5.13;1.02;;;19.00;99.90;;;;;;5063359;28;20056;-57
2023/07/25 08:14:20;;;;;;;5.53;1.17;;;19.20;99.90;;;;;;5057276;28;20048;-51
2023/07/25 08:16:45;;;;;;;5.35;1.08;;;19.00;99.90;;;;;;5050392;28;20385;-54
2023/07/25 08:19:11;;;;;;;6.15;1.35;;;18.80;99.90;;;;;;5043626;28;20120;-58
2023/07/25 08:21:37;;;;;;;5.10;1.00;;;18.90;99.50;;;;;;5054394;28;20040;-54
2023/07/25 08:24:02;;;;;;;3.35;0.80;;;19.20;99.00;;;;;;5044304;28;20041;-57
2023/07/25 08:26:28;;;;;;;4.45;0.90;;;19.40;98.70;;;;;;5042566;28;20118;-58
2023/07/25 08:28:53;;;;;;;6.35;1.00;;;19.60;98.10;;;;;;5043303;28;20052;-55
2023/07/25 08:31:19;;;;;;;4.05;0.82;;;19.70;98.00;;;;;;5043511;28;20041;-57
2023/07/25 08:33:45;;;;;;;4.07;1.00;;;19.60;98.00;;;;;;5042453;28;20484;-54
2023/07/25 08:36:11;;;;;;;4.20;1.10;;;19.50;98.00;;;;;;5042937;28;20037;-52
2023/07/25 08:38:37;;;;;;;6.20;1.15;;;19.30;98.00;;;;;;5043634;28;20095;-58
2023/07/25 08:41:12;;;;;;;3.85;0.80;;;19.10;98.00;;;;;;5051837;28;20091;-58
2023/07/25 08:43:39;;;;;;;4.63;0.80;;;18.80;97.20;;;;;;5062971;28;20119;-50
2023/07/25 08:46:09;;;;;;;5.43;1.20;;;18.80;98.30;;;;;;5056868;28;20530;-55
2023/07/25 08:48:40;;;;;;;7.18;1.15;;;19.10;98.10;;;;;;5062056;28;20127;-49
2023/07/25 08:51:08;;;;;;;5.32;1.20;;;19.30;97.70;;;;;;5064748;28;20440;-53
2023/07/25 08:53:38;;;;;;;6.15;0.93;;;19.30;97.30;;;;;;5059272;28;20076;-51
2023/07/25 08:56:04;;;;;;;6.30;1.10;;;19.30;97.40;;;;;;5067107;28;20044;-54
2023/07/25 08:58:30;;;;;;;4.68;1.00;;;19.40;97.80;;;;;;5065236;28;20048;-54
2023/07/25 09:00:57;;;;;;;4.38;0.90;;;19.50;96.80;;;;;;5066621;28;20048;-57
2023/07/25 09:03:24;;;;;;;3.60;0.75;;;19.70;97.10;;;;;;5064232;28;20055;-57
2023/07/25 09:05:50;;;;;;;5.03;1.10;;;20.00;96.90;;;;;;5064156;28;20269;-50
2023/07/25 09:08:16;;;;;;;5.30;1.10;;;20.10;96.30;;;;;;5066291;28;20087;-57
2023/07/25 09:10:44;;;;;;;5.95;1.20;;;20.20;96.40;;;;;;5066263;28;20036;-49
2023/07/25 09:13:10;;;;;;;5.65;1.10;;;20.00;96.10;;;;;;5065915;28;20288;-52
2023/07/25 09:15:36;;;;;;;9.15;1.35;;;19.60;96.20;;;;;;5059401;28;20540;-53
2023/07/25 09:18:01;;;;;;;5.25;1.25;;;19.30;97.00;;;;;;5046218;28;20048;-57
2023/07/25 09:20:27;;;;;;;5.38;0.90;;;19.50;97.40;;;;;;5046419;28;20071;-58
2023/07/25 09:22:53;;;;;;;4.32;0.82;;;19.70;97.20;;;;;;5045872;28;20060;-50
2023/07/25 09:25:18;;;;;;;7.60;1.38;;;19.80;96.50;;;;;;5047146;28;20123;-56
2023/07/25 09:27:45;;;;;;;3.70;0.80;;;20.10;96.40;;;;;;5045602;28;20037;-57
2023/07/25 09:30:12;;;;;;;3.75;0.90;;;20.20;96.30;;;;;;5045185;28;20132;-51
2023/07/25 09:32:38;;;;;;;2.78;0.82;;;20.40;95.50;;;;;;5045066;28;20037;-54
2023/07/25 09:35:08;;;;;;;3.35;1.00;;;20.60;95.20;;;;;;5045928;28;20048;-54
2023/07/25 09:37:33;;;;;;;4.28;0.90;;;20.90;95.30;;;;;;5044007;28;20045;-57
2023/07/25 09:39:59;;;;;;;3.10;0.80;;;21.10;95.00;;;;;;5044141;28;20060;-53
2023/07/25 09:42:25;;;;;;;4.72;0.80;;;21.00;94.20;;;;;;5045705;28;20100;-55
2023/07/25 09:44:52;;;;;;;3.92;0.80;;;20.70;93.80;;;;;;5044932;28;20048;-57
2023/07/25 09:47:26;;;;;;;1.77;0.68;;;20.40;93.40;;;;;;5043205;28;20053;-58
2023/07/25 09:49:52;;;;;;;5.80;1.10;;;20.10;93.80;;;;;;5044896;28;20040;-55
2023/07/25 09:52:18;;;;;;;4.93;1.00;;;20.10;94.60;;;;;;5045106;28;20087;-55
2023/07/25 09:54:44;;;;;;;5.63;0.90;;;20.10;94.30;;;;;;5045982;28;20045;-52
2023/07/25 09:57:10;;;;;;;4.55;0.88;;;20.10;94.00;;;;;;5046373;28;20078;-57
2023/07/25 09:59:37;;;;;;;2.35;0.77;;;20.30;94.00;;;;;;5046552;28;20052;-57
2023/07/25 10:02:03;;;;;;;2.88;0.60;;;20.60;94.20;;;;;;5045081;28;20622;-54
2023/07/25 10:04:29;;;;;;;3.53;0.73;;;21.10;93.90;;;;;;5045440;28;20049;-55
2023/07/25 10:06:59;;;;;;;3.03;0.60;;;21.70;93.30;;;;;;5044343;28;20052;-57
2023/07/25 10:09:25;;;;;;;8.35;1.20;;;22.00;92.90;;;;;;5045264;28;20041;-52
2023/07/25 10:11:52;;;;;;;6.60;0.93;;;21.90;92.60;;;;;;5044115;28;20412;-57
2023/07/25 10:14:19;;;;;;;3.20;0.70;;;21.60;92.30;;;;;;5048191;28;20048;-53
2023/07/25 10:16:46;;;;;;;5.32;0.80;;;21.20;92.90;;;;;;5054062;28;20068;-58
2023/07/25 10:19:11;;;;;;;3.38;1.00;;;21.10;92.70;;;;;;5044247;28;20060;-56
2023/07/25 10:21:53;;;;;;;5.90;0.95;;;21.30;92.60;;;;;;5045737;28;20957;-52
2023/07/25 10:24:20;;;;;;;4.80;0.75;;;21.50;92.20;;;;;;5045729;28;20057;-49
2023/07/25 10:26:59;;;;;;;3.22;0.70;;;21.80;93.30;;;;;;5045017;28;20079;-58
2023/07/25 10:29:43;;;;;;;5.55;0.90;;;22.20;92.10;;;;;;5045526;28;20079;-52
2023/07/25 10:32:14;;;;;;;3.50;0.80;;;22.20;91.20;;;;;;5043986;28;20111;-58
2023/07/25 10:34:44;;;;;;;4.82;1.15;;;21.90;92.20;;;;;;5045434;28;20447;-58
2023/07/25 10:37:24;;;;;;;6.07;0.90;;;21.30;93.00;;;;;;5045440;28;20041;-58
2023/07/25 10:40:23;;;;;;;3.90;0.90;;;20.90;93.60;;;;;;5043796;28;20051;-52
2023/07/25 10:42:50;;;;;;;9.05;1.10;;;20.40;94.50;;;;;;5045111;28;20083;-57
2023/07/25 10:45:28;;;;;;;5.75;1.23;;;20.10;94.70;;;;;;5045203;28;20041;-58
2023/07/25 10:47:54;;;;;;;4.82;1.00;;;19.90;95.10;;;;;;5044513;28;20542;-53
2023/07/25 10:50:25;;;;;;;5.93;0.98;;;19.90;95.50;;;;;;5060319;28;20049;-44
2023/07/25 10:52:51;;;;;;;3.40;0.77;;;19.90;95.30;;;;;;5044976;28;20094;-54
2023/07/25 10:55:16;;;;;;;3.05;0.82;;;20.00;95.80;;;;;;5045296;28;20049;-59
2023/07/25 10:58:08;;;;;;;5.70;1.20;;;20.10;94.90;;;;;;5044388;28;20485;-57
2023/07/25 11:00:35;;;;;;;4.07;1.10;;;20.20;93.90;;;;;;5043496;28;20045;-60
2023/07/25 11:03:28;;;;;;;5.65;1.17;;;20.20;94.30;;;;;;5041910;28;20060;-55
2023/07/25 11:06:08;;;;;;;4.47;0.90;;;20.20;94.40;;;;;;5044620;28;20051;-58
2023/07/25 11:08:38;;;;;;;8.02;1.23;;;20.20;94.70;;;;;;5045304;28;20080;-55
2023/07/25 11:11:07;;;;;;;4.70;1.00;;;20.10;94.50;;;;;;5045119;28;20041;-51
2023/07/25 11:13:34;;;;;;;;;;;19.90;94.60;;;;;;5044453;28;20120;-55
2023/07/25 11:16:07;;;;;;;712.50;446.80;;;19.60;94.30;;;;;;5054597;28;25059;-55
2023/07/25 11:21:11;;;;;;;;;;;19.70;94.50;;;;;;4513375;22;19924;-49
2023/07/25 11:23:37;;;;;;;;;;;19.90;94.60;;;;;;5033185;28;25061;-50
2023/07/25 11:26:03;;;;;;;;;;;20.30;94.70;;;;;;5030942;28;20800;-55
2023/07/25 11:28:29;;;;;;;;;;;20.60;94.80;;;;;;5033416;28;19986;-57
2023/07/25 11:30:55;;;;;;;;;;;20.90;94.60;;;;;;5033003;28;19978;-53
2023/07/25 11:33:21;;;;;;;;;;;21.10;93.80;;;;;;5034414;28;20288;-53
2023/07/25 11:35:54;;;;;;;;;;;21.10;94.00;;;;;;5041360;28;19936;-54
2023/07/25 11:38:20;;;;;;;;;;;21.20;93.10;;;;;;5034502;28;20027;-56
2023/07/25 11:40:49;;;;;;;;;;;21.30;92.70;;;;;;5031781;28;25103;-54
2023/07/25 11:43:14;;;;;;;;;;;21.60;92.70;;;;;;5031814;28;25104;-55
2023/07/25 11:45:40;;;;;;;4.32;0.98;;;21.80;92.30;;;;;;5033550;28;19960;-56
2023/07/25 11:48:08;;;;;;;6.22;0.95;;;21.70;92.50;;;;;;5034260;28;20078;-55
2023/07/25 11:50:34;;;;;;;4.32;0.88;;;21.40;92.00;;;;;;5031798;28;20086;-57
2023/07/25 11:53:01;;;;;;;4.13;1.08;;;21.10;92.30;;;;;;5032518;28;20501;-54
2023/07/25 11:55:28;;;;;;;3.90;1.00;;;20.80;92.60;;;;;;5033381;28;20179;-59
2023/07/25 11:57:54;;;;;;;4.80;1.05;;;20.50;92.90;;;;;;5032668;28;20045;-55
2023/07/25 12:00:20;;;;;;;;;;;20.40;93.30;;;;;;5032729;28;20144;-56
2023/07/25 12:02:46;;;;;;;;;;;20.30;93.60;;;;;;5032108;28;25078;-59
2023/07/25 12:05:30;;;;;;;;;;;20.50;92.50;;;;;;5033097;28;24089;-59
2023/07/25 12:08:00;;;;;;;;;;;20.70;93.00;;;;;;5031023;28;25073;-65
2023/07/25 12:10:32;;;;;;;;;;;21.00;92.20;;;;;;5033949;28;19921;-66
2023/07/25 12:13:00;;;;;;;;;;;21.00;92.80;;;;;;5026360;28;25088;-63
2023/07/25 12:15:45;;;;;;;;;;;21.30;91.90;;;;;;5033356;28;19932;-55
2023/07/25 12:18:31;;;;;;;;;;;21.50;92.30;;;;;;5031609;28;25055;-55
2023/07/25 12:21:01;;;;;;;3.28;0.90;;;21.80;91.70;;;;;;5032152;28;19924;-54
2023/07/25 12:23:30;;;;;;;3.22;0.80;;;21.70;90.30;;;;;;5033704;28;20047;-57
2023/07/25 12:25:57;;;;;;;4.35;0.90;;;21.40;90.80;;;;;;5032086;28;20045;-53
2023/07/25 12:28:23;;;;;;;3.53;0.90;;;21.10;91.50;;;;;;5033427;28;20033;-59
2023/07/25 12:30:49;;;;;;;4.60;1.10;;;21.00;91.80;;;;;;5033470;28;20442;-58
2023/07/25 12:33:15;;;;;;;2.90;0.80;;;20.80;91.70;;;;;;5033009;28;20103;-53
2023/07/25 12:35:41;;;;;;;1.83;0.70;;;20.70;91.30;;;;;;5031535;28;20099;-52
2023/07/25 12:38:06;;;;;;;2.08;0.50;;;20.60;91.40;;;;;;5033314;28;20073;-56
2023/07/25 12:40:32;;;;;;;2.58;0.65;;;20.50;90.30;;;;;;5032578;28;20033;-50
2023/07/25 12:42:58;;;;;;;1.65;0.50;;;20.50;90.40;;;;;;5032596;28;20079;-57
2023/07/25 12:45:23;;;;;;;2.72;0.50;;;20.60;90.50;;;;;;5032799;28;20041;-56
2023/07/25 12:47:49;;;;;;;2.97;0.80;;;20.80;91.20;;;;;;5032558;28;20045;-54